sensor_id;sensor_type;location;lat;lon;timestamp;temperature;humidity
13433;DHT22;6789;47.678;9.158;2023-03-01T00:01:42;1.80;99.90
13433;DHT22;6789;47.678;9.158;2023-03-01T00:06:33;1.80;99.90
13433;DHT22;6789;47.678;9.158;2023-03-01T00:11:27;1.90;99.90
13433;DHT22;6789;47.678;9.158;2023-03-01T00:16:26;1.90;99.90
13433;DHT22;6789;47.678;9.158;2023-03-01T00:21:21;1.90;99.90
13433;DHT22;6789;47.678;9.158;2023-03-01T00:26:13;2.00;99.90
13433;DHT22;6789;47.678;9.158;2023-03-01T00:31:09;2.00;99.90
13433;DHT22;6789;47.678;9.158;2023-03-01T00:36:06;2.00;99.90
13433;DHT22;6789;47.678;9.158;2023-03-01T00:41:04;2.00;99.90
13433;DHT22;6789;47.678;9.158;2023-03-01T00:46:01;2.00;99.90
13433;DHT22;6789;47.678;9.158;2023-03-01T00:51:11;2.00;99.90
13433;DHT22;6789;47.678;9.158;2023-03-01T00:56:13;2.00;99.90
13433;DHT22;6789;47.678;9.158;2023-03-01T01:01:11;2.10;99.90
13433;DHT22;6789;47.678;9.158;2023-03-01T01:06:17;2.00;99.90
13433;DHT22;6789;47.678;9.158;2023-03-01T01:11:10;2.10;99.90
13433;DHT22;6789;47.678;9.158;2023-03-01T01:16:03;2.10;99.90
13433;DHT22;6789;47.678;9.158;2023-03-01T01:20:55;2.10;99.90
13433;DHT22;6789;47.678;9.158;2023-03-01T01:25:47;2.10;99.90
13433;DHT22;6789;47.678;9.158;2023-03-01T01:30:38;2.10;99.90
13433;DHT22;6789;47.678;9.158;2023-03-01T01:35:30;2.10;99.90
13433;DHT22;6789;47.678;9.158;2023-03-01T01:40:22;2.10;99.90
13433;DHT22;6789;47.678;9.158;2023-03-01T01:45:33;2.10;99.90
13433;DHT22;6789;47.678;9.158;2023-03-01T01:50:26;2.10;99.90
13433;DHT22;6789;47.678;9.158;2023-03-01T01:55:24;2.10;99.90
13433;DHT22;6789;47.678;9.158;2023-03-01T02:00:24;2.10;99.90
13433;DHT22;6789;47.678;9.158;2023-03-01T02:05:20;2.10;99.90
13433;DHT22;6789;47.678;9.158;2023-03-01T02:10:17;2.10;99.90
13433;DHT22;6789;47.678;9.158;2023-03-01T02:15:09;2.10;99.90
13433;DHT22;6789;47.678;9.158;2023-03-01T02:30:10;2.10;99.90
13433;DHT22;6789;47.678;9.158;2023-03-01T02:35:03;2.10;99.90
13433;DHT22;6789;47.678;9.158;2023-03-01T02:39:59;2.20;99.90
13433;DHT22;6789;47.678;9.158;2023-03-01T02:44:56;2.20;99.90
13433;DHT22;6789;47.678;9.158;2023-03-01T02:49:48;2.20;99.90
13433;DHT22;6789;47.678;9.158;2023-03-01T02:54:56;2.20;99.90
13433;DHT22;6789;47.678;9.158;2023-03-01T02:59:54;2.20;99.90
13433;DHT22;6789;47.678;9.158;2023-03-01T03:10:05;2.10;99.90
13433;DHT22;6789;47.678;9.158;2023-03-01T03:14:58;2.10;99.90
13433;DHT22;6789;47.678;9.158;2023-03-01T03:20:05;2.10;99.90
13433;DHT22;6789;47.678;9.158;2023-03-01T03:25:02;2.20;99.90
13433;DHT22;6789;47.678;9.158;2023-03-01T03:29:54;2.20;99.90
13433;DHT22;6789;47.678;9.158;2023-03-01T03:34:46;2.20;99.90
13433;DHT22;6789;47.678;9.158;2023-03-01T03:39:37;2.10;99.90
13433;DHT22;6789;47.678;9.158;2023-03-01T03:44:29;2.10;99.90
13433;DHT22;6789;47.678;9.158;2023-03-01T03:49:21;2.20;99.90
13433;DHT22;6789;47.678;9.158;2023-03-01T03:54:12;2.10;99.90
13433;DHT22;6789;47.678;9.158;2023-03-01T03:59:04;2.00;99.90
13433;DHT22;6789;47.678;9.158;2023-03-01T04:03:57;2.00;99.90
13433;DHT22;6789;47.678;9.158;2023-03-01T04:08:55;2.00;99.90
13433;DHT22;6789;47.678;9.158;2023-03-01T04:13:50;2.00;99.90
13433;DHT22;6789;47.678;9.158;2023-03-01T04:18:44;1.90;99.90
13433;DHT22;6789;47.678;9.158;2023-03-01T04:23:37;2.00;99.90
13433;DHT22;6789;47.678;9.158;2023-03-01T04:28:37;2.00;99.90
13433;DHT22;6789;47.678;9.158;2023-03-01T04:33:37;1.90;99.90
13433;DHT22;6789;47.678;9.158;2023-03-01T04:38:28;2.00;99.90
13433;DHT22;6789;47.678;9.158;2023-03-01T04:43:20;2.00;99.90
13433;DHT22;6789;47.678;9.158;2023-03-01T04:48:12;1.90;99.90
13433;DHT22;6789;47.678;9.158;2023-03-01T04:53:18;2.00;99.90
13433;DHT22;6789;47.678;9.158;2023-03-01T04:58:26;1.90;99.90
13433;DHT22;6789;47.678;9.158;2023-03-01T05:03:33;1.90;99.90
13433;DHT22;6789;47.678;9.158;2023-03-01T05:08:40;1.90;99.90
13433;DHT22;6789;47.678;9.158;2023-03-01T05:13:35;1.90;99.90
13433;DHT22;6789;47.678;9.158;2023-03-01T05:18:41;1.90;99.90
13433;DHT22;6789;47.678;9.158;2023-03-01T05:23:48;1.90;99.90
13433;DHT22;6789;47.678;9.158;2023-03-01T05:28:55;1.90;99.90
13433;DHT22;6789;47.678;9.158;2023-03-01T05:33:53;1.80;99.90
13433;DHT22;6789;47.678;9.158;2023-03-01T05:38:58;1.90;99.90
13433;DHT22;6789;47.678;9.158;2023-03-01T05:44:06;1.90;99.90
13433;DHT22;6789;47.678;9.158;2023-03-01T05:49:13;1.90;99.90
13433;DHT22;6789;47.678;9.158;2023-03-01T05:54:21;1.90;99.90
13433;DHT22;6789;47.678;9.158;2023-03-01T05:59:27;1.90;99.90
13433;DHT22;6789;47.678;9.158;2023-03-01T06:04:33;1.90;99.90
13433;DHT22;6789;47.678;9.158;2023-03-01T06:09:38;1.80;99.90
13433;DHT22;6789;47.678;9.158;2023-03-01T06:14:45;1.90;99.90
13433;DHT22;6789;47.678;9.158;2023-03-01T06:19:52;1.90;99.90
13433;DHT22;6789;47.678;9.158;2023-03-01T06:24:58;1.90;99.90
13433;DHT22;6789;47.678;9.158;2023-03-01T06:30:05;1.90;99.90
13433;DHT22;6789;47.678;9.158;2023-03-01T06:35:14;1.90;99.90
13433;DHT22;6789;47.678;9.158;2023-03-01T06:40:11;1.90;99.90
13433;DHT22;6789;47.678;9.158;2023-03-01T06:45:09;1.90;99.90
13433;DHT22;6789;47.678;9.158;2023-03-01T06:50:17;1.90;99.90
13433;DHT22;6789;47.678;9.158;2023-03-01T06:55:23;2.00;99.90
13433;DHT22;6789;47.678;9.158;2023-03-01T07:00:31;1.90;99.90
13433;DHT22;6789;47.678;9.158;2023-03-01T07:05:37;2.00;99.90
13433;DHT22;6789;47.678;9.158;2023-03-01T07:10:43;1.90;99.90
13433;DHT22;6789;47.678;9.158;2023-03-01T07:15:36;2.00;99.90
13433;DHT22;6789;47.678;9.158;2023-03-01T07:20:42;2.00;99.90
13433;DHT22;6789;47.678;9.158;2023-03-01T07:25:52;1.90;99.90
13433;DHT22;6789;47.678;9.158;2023-03-01T07:31:03;2.00;99.90
13433;DHT22;6789;47.678;9.158;2023-03-01T07:36:10;1.90;99.90
13433;DHT22;6789;47.678;9.158;2023-03-01T07:41:26;2.00;99.90
13433;DHT22;6789;47.678;9.158;2023-03-01T07:46:28;2.10;99.90
13433;DHT22;6789;47.678;9.158;2023-03-01T07:51:44;2.10;99.90
13433;DHT22;6789;47.678;9.158;2023-03-01T07:56:46;2.00;99.90
13433;DHT22;6789;47.678;9.158;2023-03-01T08:01:53;2.00;99.90
13433;DHT22;6789;47.678;9.158;2023-03-01T08:07:00;2.10;99.90
13433;DHT22;6789;47.678;9.158;2023-03-01T08:12:07;2.00;99.90
13433;DHT22;6789;47.678;9.158;2023-03-01T08:17:14;2.00;99.90
13433;DHT22;6789;47.678;9.158;2023-03-01T08:22:20;2.00;99.90
13433;DHT22;6789;47.678;9.158;2023-03-01T08:27:25;2.10;99.90
13433;DHT22;6789;47.678;9.158;2023-03-01T08:32:19;2.20;99.90
13433;DHT22;6789;47.678;9.158;2023-03-01T08:37:25;2.20;99.90
13433;DHT22;6789;47.678;9.158;2023-03-01T08:42:21;2.20;99.90
13433;DHT22;6789;47.678;9.158;2023-03-01T08:47:38;2.20;99.90
13433;DHT22;6789;47.678;9.158;2023-03-01T08:52:46;2.10;99.90
13433;DHT22;6789;47.678;9.158;2023-03-01T08:57:55;2.20;99.90
13433;DHT22;6789;47.678;9.158;2023-03-01T09:03:05;2.40;99.90
13433;DHT22;6789;47.678;9.158;2023-03-01T09:08:12;2.30;99.90
13433;DHT22;6789;47.678;9.158;2023-03-01T09:13:22;2.30;99.90
13433;DHT22;6789;47.678;9.158;2023-03-01T09:18:34;2.30;99.90
13433;DHT22;6789;47.678;9.158;2023-03-01T09:23:45;2.40;99.90
13433;DHT22;6789;47.678;9.158;2023-03-01T09:29:03;2.40;99.90
13433;DHT22;6789;47.678;9.158;2023-03-01T09:34:09;2.40;99.90
13433;DHT22;6789;47.678;9.158;2023-03-01T09:39:15;2.40;99.90
13433;DHT22;6789;47.678;9.158;2023-03-01T09:50:15;2.50;99.90
13433;DHT22;6789;47.678;9.158;2023-03-01T10:01:27;2.40;99.90
13433;DHT22;6789;47.678;9.158;2023-03-01T10:06:44;2.30;99.90
13433;DHT22;6789;47.678;9.158;2023-03-01T10:12:20;2.40;99.90
13433;DHT22;6789;47.678;9.158;2023-03-01T10:17:52;2.50;99.90
13433;DHT22;6789;47.678;9.158;2023-03-01T10:23:01;2.60;99.90
13433;DHT22;6789;47.678;9.158;2023-03-01T10:29:06;2.50;99.90
13433;DHT22;6789;47.678;9.158;2023-03-01T10:34:19;2.50;99.90
13433;DHT22;6789;47.678;9.158;2023-03-01T10:39:35;2.50;99.90
13433;DHT22;6789;47.678;9.158;2023-03-01T10:44:46;2.60;99.90
13433;DHT22;6789;47.678;9.158;2023-03-01T10:49:59;2.60;99.90
13433;DHT22;6789;47.678;9.158;2023-03-01T11:00:25;2.60;99.90
13433;DHT22;6789;47.678;9.158;2023-03-01T11:05:32;2.70;99.90
13433;DHT22;6789;47.678;9.158;2023-03-01T11:10:39;2.70;99.90
13433;DHT22;6789;47.678;9.158;2023-03-01T11:16:03;2.60;99.90
13433;DHT22;6789;47.678;9.158;2023-03-01T11:21:15;2.80;99.90
13433;DHT22;6789;47.678;9.158;2023-03-01T11:26:45;2.90;99.90
13433;DHT22;6789;47.678;9.158;2023-03-01T11:32:20;2.80;99.90
13433;DHT22;6789;47.678;9.158;2023-03-01T11:37:43;2.80;99.90
13433;DHT22;6789;47.678;9.158;2023-03-01T12:01:36;2.60;99.90
13433;DHT22;6789;47.678;9.158;2023-03-01T12:25:18;2.70;99.90
13433;DHT22;6789;47.678;9.158;2023-03-01T12:43:04;2.80;99.90
13433;DHT22;6789;47.678;9.158;2023-03-01T12:53:43;2.80;99.90
13433;DHT22;6789;47.678;9.158;2023-03-01T12:59:18;2.80;99.90
13433;DHT22;6789;47.678;9.158;2023-03-01T13:15:56;2.90;99.90
13433;DHT22;6789;47.678;9.158;2023-03-01T13:21:03;3.00;99.90
13433;DHT22;6789;47.678;9.158;2023-03-01T13:26:17;3.10;99.90
13433;DHT22;6789;47.678;9.158;2023-03-01T13:46:40;3.20;99.90
13433;DHT22;6789;47.678;9.158;2023-03-01T13:51:47;3.10;99.90
13433;DHT22;6789;47.678;9.158;2023-03-01T13:56:55;3.10;99.90
13433;DHT22;6789;47.678;9.158;2023-03-01T14:02:12;3.20;99.90
13433;DHT22;6789;47.678;9.158;2023-03-01T14:07:21;3.20;99.90
13433;DHT22;6789;47.678;9.158;2023-03-01T14:12:55;3.30;99.90
13433;DHT22;6789;47.678;9.158;2023-03-01T14:18:34;3.30;99.90
13433;DHT22;6789;47.678;9.158;2023-03-01T14:23:52;3.30;99.90
13433;DHT22;6789;47.678;9.158;2023-03-01T14:28:47;3.40;99.90
13433;DHT22;6789;47.678;9.158;2023-03-01T14:34:23;3.40;99.90
13433;DHT22;6789;47.678;9.158;2023-03-01T14:39:32;3.40;99.90
13433;DHT22;6789;47.678;9.158;2023-03-01T14:44:40;3.50;99.90
13433;DHT22;6789;47.678;9.158;2023-03-01T14:49:53;3.30;99.90
13433;DHT22;6789;47.678;9.158;2023-03-01T14:55:17;3.50;99.90
13433;DHT22;6789;47.678;9.158;2023-03-01T15:00:29;3.60;99.90
13433;DHT22;6789;47.678;9.158;2023-03-01T15:05:39;3.50;99.90
13433;DHT22;6789;47.678;9.158;2023-03-01T15:10:40;3.30;99.90
13433;DHT22;6789;47.678;9.158;2023-03-01T15:21:40;3.30;99.90
13433;DHT22;6789;47.678;9.158;2023-03-01T15:26:56;3.40;99.90
13433;DHT22;6789;47.678;9.158;2023-03-01T15:32:26;3.40;99.90
13433;DHT22;6789;47.678;9.158;2023-03-01T15:37:47;3.40;99.90
13433;DHT22;6789;47.678;9.158;2023-03-01T15:42:54;3.50;99.90
13433;DHT22;6789;47.678;9.158;2023-03-01T15:48:15;3.60;99.90
13433;DHT22;6789;47.678;9.158;2023-03-01T15:53:27;3.60;99.90
13433;DHT22;6789;47.678;9.158;2023-03-01T15:58:33;3.50;99.90
13433;DHT22;6789;47.678;9.158;2023-03-01T16:03:39;3.60;99.90
13433;DHT22;6789;47.678;9.158;2023-03-01T16:08:45;3.50;99.90
13433;DHT22;6789;47.678;9.158;2023-03-01T16:13:51;3.60;99.90
13433;DHT22;6789;47.678;9.158;2023-03-01T16:18:57;3.50;99.90
13433;DHT22;6789;47.678;9.158;2023-03-01T16:24:03;3.40;99.90
13433;DHT22;6789;47.678;9.158;2023-03-01T16:29:09;3.40;99.90
13433;DHT22;6789;47.678;9.158;2023-03-01T16:34:15;3.40;99.90
13433;DHT22;6789;47.678;9.158;2023-03-01T16:39:21;3.30;99.90
13433;DHT22;6789;47.678;9.158;2023-03-01T16:44:14;3.30;99.90
13433;DHT22;6789;47.678;9.158;2023-03-01T16:49:11;3.30;99.90
13433;DHT22;6789;47.678;9.158;2023-03-01T16:54:17;3.30;99.90
13433;DHT22;6789;47.678;9.158;2023-03-01T16:59:23;3.20;99.90
13433;DHT22;6789;47.678;9.158;2023-03-01T17:04:29;3.20;99.90
13433;DHT22;6789;47.678;9.158;2023-03-01T17:09:36;3.20;99.90
13433;DHT22;6789;47.678;9.158;2023-03-01T17:14:42;3.20;99.90
13433;DHT22;6789;47.678;9.158;2023-03-01T17:19:48;3.20;99.90
13433;DHT22;6789;47.678;9.158;2023-03-01T17:24:54;3.30;99.90
13433;DHT22;6789;47.678;9.158;2023-03-01T17:29:46;3.30;99.90
13433;DHT22;6789;47.678;9.158;2023-03-01T17:34:52;3.30;99.90
13433;DHT22;6789;47.678;9.158;2023-03-01T17:39:45;3.30;99.90
13433;DHT22;6789;47.678;9.158;2023-03-01T17:44:50;3.30;99.90
13433;DHT22;6789;47.678;9.158;2023-03-01T17:49:56;3.30;99.90
13433;DHT22;6789;47.678;9.158;2023-03-01T17:55:02;3.40;99.90
13433;DHT22;6789;47.678;9.158;2023-03-01T18:00:12;3.40;99.90
13433;DHT22;6789;47.678;9.158;2023-03-01T18:05:19;3.40;99.90
13433;DHT22;6789;47.678;9.158;2023-03-01T18:10:25;3.50;99.90
13433;DHT22;6789;47.678;9.158;2023-03-01T18:15:26;3.50;99.90
13433;DHT22;6789;47.678;9.158;2023-03-01T18:20:33;3.50;99.90
13433;DHT22;6789;47.678;9.158;2023-03-01T18:25:39;3.50;99.90
13433;DHT22;6789;47.678;9.158;2023-03-01T18:30:45;3.40;99.90
13433;DHT22;6789;47.678;9.158;2023-03-01T18:35:51;3.50;99.90
13433;DHT22;6789;47.678;9.158;2023-03-01T18:40:45;3.50;99.90
13433;DHT22;6789;47.678;9.158;2023-03-01T18:45:58;3.50;99.90
13433;DHT22;6789;47.678;9.158;2023-03-01T18:51:13;3.40;99.90
13433;DHT22;6789;47.678;9.158;2023-03-01T18:56:09;3.60;99.90
13433;DHT22;6789;47.678;9.158;2023-03-01T19:01:33;3.50;99.90
13433;DHT22;6789;47.678;9.158;2023-03-01T19:06:40;3.50;99.90
13433;DHT22;6789;47.678;9.158;2023-03-01T19:11:50;3.50;99.90
13433;DHT22;6789;47.678;9.158;2023-03-01T19:16:46;3.60;99.90
13433;DHT22;6789;47.678;9.158;2023-03-01T19:21:41;3.60;99.90
13433;DHT22;6789;47.678;9.158;2023-03-01T19:26:47;3.60;99.90
13433;DHT22;6789;47.678;9.158;2023-03-01T19:31:41;3.60;99.90
13433;DHT22;6789;47.678;9.158;2023-03-01T19:36:33;3.70;99.90
13433;DHT22;6789;47.678;9.158;2023-03-01T19:41:26;3.60;99.90
13433;DHT22;6789;47.678;9.158;2023-03-01T19:46:33;3.60;99.90
13433;DHT22;6789;47.678;9.158;2023-03-01T19:51:39;3.60;99.90
13433;DHT22;6789;47.678;9.158;2023-03-01T19:56:46;3.60;99.90
13433;DHT22;6789;47.678;9.158;2023-03-01T20:01:39;3.70;99.90
13433;DHT22;6789;47.678;9.158;2023-03-01T20:06:36;3.80;99.90
13433;DHT22;6789;47.678;9.158;2023-03-01T20:11:29;3.70;99.90
13433;DHT22;6789;47.678;9.158;2023-03-01T20:16:38;3.70;99.90
13433;DHT22;6789;47.678;9.158;2023-03-01T20:21:34;3.70;99.90
13433;DHT22;6789;47.678;9.158;2023-03-01T20:26:31;3.70;99.90
13433;DHT22;6789;47.678;9.158;2023-03-01T20:31:25;3.80;99.90
13433;DHT22;6789;47.678;9.158;2023-03-01T20:36:20;3.80;99.90
13433;DHT22;6789;47.678;9.158;2023-03-01T20:41:26;3.80;99.90
13433;DHT22;6789;47.678;9.158;2023-03-01T20:46:21;3.80;99.90
13433;DHT22;6789;47.678;9.158;2023-03-01T20:51:15;3.90;99.90
13433;DHT22;6789;47.678;9.158;2023-03-01T20:56:11;3.90;99.90
13433;DHT22;6789;47.678;9.158;2023-03-01T21:01:18;3.90;99.90
13433;DHT22;6789;47.678;9.158;2023-03-01T21:06:12;3.90;99.90
13433;DHT22;6789;47.678;9.158;2023-03-01T21:11:18;3.90;99.90
13433;DHT22;6789;47.678;9.158;2023-03-01T21:16:12;4.00;99.90
13433;DHT22;6789;47.678;9.158;2023-03-01T21:21:21;4.00;99.90
13433;DHT22;6789;47.678;9.158;2023-03-01T21:26:20;3.80;99.90
13433;DHT22;6789;47.678;9.158;2023-03-01T21:31:23;4.00;99.90
13433;DHT22;6789;47.678;9.158;2023-03-01T21:36:19;3.90;99.90
13433;DHT22;6789;47.678;9.158;2023-03-01T21:41:16;3.80;99.90
13433;DHT22;6789;47.678;9.158;2023-03-01T21:46:13;3.90;99.90
13433;DHT22;6789;47.678;9.158;2023-03-01T21:51:09;3.90;99.90
13433;DHT22;6789;47.678;9.158;2023-03-01T21:56:04;4.00;99.90
13433;DHT22;6789;47.678;9.158;2023-03-01T22:01:09;4.10;99.90
13433;DHT22;6789;47.678;9.158;2023-03-01T22:06:04;4.10;99.90
13433;DHT22;6789;47.678;9.158;2023-03-01T22:11:00;4.00;99.90
13433;DHT22;6789;47.678;9.158;2023-03-01T22:15:53;3.90;99.90
13433;DHT22;6789;47.678;9.158;2023-03-01T22:20:46;3.80;99.90
13433;DHT22;6789;47.678;9.158;2023-03-01T22:25:41;3.80;99.90
13433;DHT22;6789;47.678;9.158;2023-03-01T22:30:33;4.00;99.90
13433;DHT22;6789;47.678;9.158;2023-03-01T22:35:26;3.90;99.90
13433;DHT22;6789;47.678;9.158;2023-03-01T22:40:18;3.80;99.90
13433;DHT22;6789;47.678;9.158;2023-03-01T22:45:11;3.80;99.90
13433;DHT22;6789;47.678;9.158;2023-03-01T22:50:05;3.80;99.90
13433;DHT22;6789;47.678;9.158;2023-03-01T22:54:59;3.80;99.90
13433;DHT22;6789;47.678;9.158;2023-03-01T22:59:59;3.80;99.90
13433;DHT22;6789;47.678;9.158;2023-03-01T23:04:52;3.80;99.90
13433;DHT22;6789;47.678;9.158;2023-03-01T23:09:45;3.90;99.90
13433;DHT22;6789;47.678;9.158;2023-03-01T23:14:41;3.90;99.90
13433;DHT22;6789;47.678;9.158;2023-03-01T23:19:37;3.90;99.90
13433;DHT22;6789;47.678;9.158;2023-03-01T23:24:29;3.90;99.90
13433;DHT22;6789;47.678;9.158;2023-03-01T23:29:24;3.90;99.90
13433;DHT22;6789;47.678;9.158;2023-03-01T23:34:18;3.80;99.90
13433;DHT22;6789;47.678;9.158;2023-03-01T23:39:12;3.80;99.90
13433;DHT22;6789;47.678;9.158;2023-03-01T23:44:06;3.90;99.90
13433;DHT22;6789;47.678;9.158;2023-03-01T23:48:59;3.90;99.90
13433;DHT22;6789;47.678;9.158;2023-03-01T23:53:59;3.90;99.90
13433;DHT22;6789;47.678;9.158;2023-03-01T23:58:57;3.90;99.90
